sensor_id;sensor_type;location;lat;lon;timestamp;pressure;altitude;pressure_sealevel;temperature;humidity
33153;BME280;19509;43.862;26.176;2023-05-19T00:00:32;100750.19;;;11.52;93.77
33153;BME280;19509;43.862;26.176;2023-05-19T00:02:58;100749.34;;;11.58;94.08
33153;BME280;19509;43.862;26.176;2023-05-19T00:05:24;100746.63;;;11.65;93.74
33153;BME280;19509;43.862;26.176;2023-05-19T00:07:57;100753.84;;;11.65;93.42
33153;BME280;19509;43.862;26.176;2023-05-19T00:10:23;100753.50;;;11.48;91.91
33153;BME280;19509;43.862;26.176;2023-05-19T00:12:50;100759.97;;;11.33;93.07
33153;BME280;19509;43.862;26.176;2023-05-19T00:15:15;100746.31;;;11.22;92.76
33153;BME280;19509;43.862;26.176;2023-05-19T00:17:42;100757.91;;;11.22;93.36
33153;BME280;19509;43.862;26.176;2023-05-19T00:20:07;100761.63;;;11.34;92.48
33153;BME280;19509;43.862;26.176;2023-05-19T00:22:33;100758.75;;;11.16;92.93
33153;BME280;19509;43.862;26.176;2023-05-19T00:24:58;100760.81;;;11.21;93.17
33153;BME280;19509;43.862;26.176;2023-05-19T00:27:24;100757.53;;;11.05;92.87
33153;BME280;19509;43.862;26.176;2023-05-19T00:29:49;100754.00;;;11.11;93.34
33153;BME280;19509;43.862;26.176;2023-05-19T00:32:15;100760.00;;;11.00;93.43
33153;BME280;19509;43.862;26.176;2023-05-19T00:34:41;100769.75;;;11.08;93.76
33153;BME280;19509;43.862;26.176;2023-05-19T00:37:06;100773.06;;;10.97;93.36
33153;BME280;19509;43.862;26.176;2023-05-19T00:39:32;100772.47;;;10.88;93.18
33153;BME280;19509;43.862;26.176;2023-05-19T00:41:57;100782.00;;;10.84;93.41
33153;BME280;19509;43.862;26.176;2023-05-19T00:44:23;100771.66;;;10.81;94.13
33153;BME280;19509;43.862;26.176;2023-05-19T00:46:49;100786.75;;;10.75;94.40
33153;BME280;19509;43.862;26.176;2023-05-19T00:49:14;100785.28;;;10.86;93.57
33153;BME280;19509;43.862;26.176;2023-05-19T00:51:40;100785.50;;;10.78;94.19
33153;BME280;19509;43.862;26.176;2023-05-19T00:54:06;100789.84;;;10.65;94.05
33153;BME280;19509;43.862;26.176;2023-05-19T00:56:32;100787.97;;;10.79;94.12
33153;BME280;19509;43.862;26.176;2023-05-19T00:58:58;100791.94;;;10.77;94.08
33153;BME280;19509;43.862;26.176;2023-05-19T01:01:23;100797.72;;;10.67;93.29
33153;BME280;19509;43.862;26.176;2023-05-19T01:03:50;100794.63;;;10.77;93.94
33153;BME280;19509;43.862;26.176;2023-05-19T01:06:16;100796.69;;;10.81;93.90
33153;BME280;19509;43.862;26.176;2023-05-19T01:08:43;100784.69;;;10.71;94.07
33153;BME280;19509;43.862;26.176;2023-05-19T01:11:09;100782.59;;;10.79;94.13
33153;BME280;19509;43.862;26.176;2023-05-19T01:13:35;100781.38;;;10.75;92.87
33153;BME280;19509;43.862;26.176;2023-05-19T01:16:16;100778.47;;;10.63;93.74
33153;BME280;19509;43.862;26.176;2023-05-19T01:25:14;100788.81;;;10.47;93.41
33153;BME280;19509;43.862;26.176;2023-05-19T01:30:42;100784.00;;;10.42;92.47
33153;BME280;19509;43.862;26.176;2023-05-19T01:33:11;100785.28;;;10.46;92.17
33153;BME280;19509;43.862;26.176;2023-05-19T01:35:39;100782.59;;;10.39;92.26
33153;BME280;19509;43.862;26.176;2023-05-19T01:38:09;100780.91;;;10.38;92.27
33153;BME280;19509;43.862;26.176;2023-05-19T01:40:37;100779.00;;;10.19;92.82
33153;BME280;19509;43.862;26.176;2023-05-19T01:43:03;100779.81;;;10.19;93.28
33153;BME280;19509;43.862;26.176;2023-05-19T01:45:30;100779.19;;;10.17;93.64
33153;BME280;19509;43.862;26.176;2023-05-19T01:47:59;100771.72;;;10.06;93.30
33153;BME280;19509;43.862;26.176;2023-05-19T01:50:25;100802.75;;;10.15;93.56
33153;BME280;19509;43.862;26.176;2023-05-19T01:52:51;100775.59;;;9.97;92.67
33153;BME280;19509;43.862;26.176;2023-05-19T01:55:18;100776.69;;;10.09;93.53
33153;BME280;19509;43.862;26.176;2023-05-19T01:58:08;100777.88;;;9.93;92.97
33153;BME280;19509;43.862;26.176;2023-05-19T02:00:50;100783.59;;;9.77;92.80
33153;BME280;19509;43.862;26.176;2023-05-19T02:06:17;100790.78;;;9.70;93.59
33153;BME280;19509;43.862;26.176;2023-05-19T02:09:24;100796.63;;;9.80;93.78
33153;BME280;19509;43.862;26.176;2023-05-19T02:11:54;100791.84;;;9.76;92.94
33153;BME280;19509;43.862;26.176;2023-05-19T02:14:49;100795.91;;;9.58;92.76
33153;BME280;19509;43.862;26.176;2023-05-19T02:17:17;100794.72;;;9.74;92.74
33153;BME280;19509;43.862;26.176;2023-05-19T02:19:44;100803.78;;;9.66;92.20
33153;BME280;19509;43.862;26.176;2023-05-19T02:22:10;100809.78;;;9.62;92.88
33153;BME280;19509;43.862;26.176;2023-05-19T02:24:35;100803.16;;;9.64;92.83
33153;BME280;19509;43.862;26.176;2023-05-19T02:27:02;100810.22;;;9.65;93.07
33153;BME280;19509;43.862;26.176;2023-05-19T02:29:28;100814.94;;;9.63;93.31
33153;BME280;19509;43.862;26.176;2023-05-19T02:31:53;100819.75;;;9.75;92.89
33153;BME280;19509;43.862;26.176;2023-05-19T02:34:19;100822.22;;;9.69;92.62
33153;BME280;19509;43.862;26.176;2023-05-19T02:36:45;100828.63;;;9.68;92.73
33153;BME280;19509;43.862;26.176;2023-05-19T02:39:14;100819.91;;;9.66;92.40
33153;BME280;19509;43.862;26.176;2023-05-19T02:41:39;100826.34;;;9.65;92.01
33153;BME280;19509;43.862;26.176;2023-05-19T02:44:05;100833.50;;;9.52;91.95
33153;BME280;19509;43.862;26.176;2023-05-19T02:46:31;100833.28;;;9.53;93.01
33153;BME280;19509;43.862;26.176;2023-05-19T02:48:57;100834.28;;;9.45;93.14
33153;BME280;19509;43.862;26.176;2023-05-19T02:51:23;100840.06;;;9.49;92.37
33153;BME280;19509;43.862;26.176;2023-05-19T02:53:49;100844.03;;;9.53;92.50
33153;BME280;19509;43.862;26.176;2023-05-19T02:56:15;100849.78;;;9.50;93.28
33153;BME280;19509;43.862;26.176;2023-05-19T02:58:40;100844.22;;;9.52;93.51
33153;BME280;19509;43.862;26.176;2023-05-19T03:01:07;100847.81;;;9.65;92.71
33153;BME280;19509;43.862;26.176;2023-05-19T03:03:33;100851.53;;;9.64;93.17
33153;BME280;19509;43.862;26.176;2023-05-19T03:05:59;100855.69;;;9.67;92.97
33153;BME280;19509;43.862;26.176;2023-05-19T03:08:26;100857.16;;;9.69;92.91
33153;BME280;19509;43.862;26.176;2023-05-19T03:10:52;100861.53;;;9.77;92.22
33153;BME280;19509;43.862;26.176;2023-05-19T03:13:17;100864.03;;;9.79;91.77
33153;BME280;19509;43.862;26.176;2023-05-19T03:15:43;100862.16;;;9.79;91.83
33153;BME280;19509;43.862;26.176;2023-05-19T03:18:09;100858.44;;;9.80;92.11
33153;BME280;19509;43.862;26.176;2023-05-19T03:20:36;100860.56;;;9.91;91.85
33153;BME280;19509;43.862;26.176;2023-05-19T03:23:02;100875.69;;;9.92;90.53
33153;BME280;19509;43.862;26.176;2023-05-19T03:25:28;100879.03;;;10.01;90.89
33153;BME280;19509;43.862;26.176;2023-05-19T03:27:54;100876.72;;;9.98;91.29
33153;BME280;19509;43.862;26.176;2023-05-19T03:30:20;100882.19;;;10.18;91.56
33153;BME280;19509;43.862;26.176;2023-05-19T03:32:46;100883.94;;;10.32;90.02
33153;BME280;19509;43.862;26.176;2023-05-19T03:35:12;100881.22;;;10.26;90.98
33153;BME280;19509;43.862;26.176;2023-05-19T03:37:37;100883.78;;;10.40;90.70
33153;BME280;19509;43.862;26.176;2023-05-19T03:40:03;100886.47;;;10.40;91.20
33153;BME280;19509;43.862;26.176;2023-05-19T03:42:30;100886.72;;;10.59;90.78
33153;BME280;19509;43.862;26.176;2023-05-19T03:44:55;100888.84;;;10.77;89.94
33153;BME280;19509;43.862;26.176;2023-05-19T03:47:21;100887.97;;;10.70;90.34
33153;BME280;19509;43.862;26.176;2023-05-19T03:49:47;100892.97;;;10.79;89.53
33153;BME280;19509;43.862;26.176;2023-05-19T03:52:12;100896.34;;;10.95;89.16
33153;BME280;19509;43.862;26.176;2023-05-19T03:54:38;100897.59;;;11.05;89.04
33153;BME280;19509;43.862;26.176;2023-05-19T03:57:08;100898.19;;;11.54;86.95
33153;BME280;19509;43.862;26.176;2023-05-19T03:59:34;100897.34;;;11.80;85.77
33153;BME280;19509;43.862;26.176;2023-05-19T04:02:01;100905.63;;;11.85;85.37
33153;BME280;19509;43.862;26.176;2023-05-19T04:04:27;100897.09;;;12.01;85.22
33153;BME280;19509;43.862;26.176;2023-05-19T04:06:52;100901.91;;;12.44;83.79
33153;BME280;19509;43.862;26.176;2023-05-19T04:09:18;100898.03;;;12.72;82.45
33153;BME280;19509;43.862;26.176;2023-05-19T04:11:43;100903.94;;;12.87;82.29
33153;BME280;19509;43.862;26.176;2023-05-19T04:14:09;100903.59;;;12.77;82.27
33153;BME280;19509;43.862;26.176;2023-05-19T04:16:34;100908.78;;;12.78;82.28
33153;BME280;19509;43.862;26.176;2023-05-19T04:19:00;100910.31;;;12.68;83.56
33153;BME280;19509;43.862;26.176;2023-05-19T04:21:26;100915.28;;;12.71;83.48
33153;BME280;19509;43.862;26.176;2023-05-19T04:23:52;100915.81;;;12.86;83.31
33153;BME280;19509;43.862;26.176;2023-05-19T04:26:17;100916.94;;;13.03;82.82
33153;BME280;19509;43.862;26.176;2023-05-19T04:28:46;100910.63;;;13.16;82.61
33153;BME280;19509;43.862;26.176;2023-05-19T04:31:13;100911.22;;;13.25;82.72
33153;BME280;19509;43.862;26.176;2023-05-19T04:33:39;100916.19;;;13.28;82.89
33153;BME280;19509;43.862;26.176;2023-05-19T04:36:08;100914.91;;;13.31;82.41
33153;BME280;19509;43.862;26.176;2023-05-19T04:38:37;100911.16;;;13.32;83.17
33153;BME280;19509;43.862;26.176;2023-05-19T04:41:07;100915.84;;;13.43;83.20
33153;BME280;19509;43.862;26.176;2023-05-19T04:43:38;100918.00;;;13.59;82.84
33153;BME280;19509;43.862;26.176;2023-05-19T04:46:06;100920.66;;;13.84;82.60
33153;BME280;19509;43.862;26.176;2023-05-19T04:48:34;100930.16;;;13.93;82.31
33153;BME280;19509;43.862;26.176;2023-05-19T04:50:59;100933.97;;;14.04;82.55
33153;BME280;19509;43.862;26.176;2023-05-19T04:53:29;100932.50;;;14.27;82.45
33153;BME280;19509;43.862;26.176;2023-05-19T04:55:54;100927.38;;;14.55;81.60
33153;BME280;19509;43.862;26.176;2023-05-19T04:58:23;100939.69;;;15.00;80.38
33153;BME280;19509;43.862;26.176;2023-05-19T05:00:52;100933.06;;;15.61;78.49
33153;BME280;19509;43.862;26.176;2023-05-19T05:03:24;100929.19;;;16.56;75.08
33153;BME280;19509;43.862;26.176;2023-05-19T05:05:50;100931.50;;;16.64;74.50
33153;BME280;19509;43.862;26.176;2023-05-19T05:08:16;100942.16;;;16.54;75.30
33153;BME280;19509;43.862;26.176;2023-05-19T05:10:49;100943.91;;;17.00;74.09
33153;BME280;19509;43.862;26.176;2023-05-19T05:13:15;100942.94;;;17.07;73.72
33153;BME280;19509;43.862;26.176;2023-05-19T05:15:41;100949.97;;;16.91;73.81
33153;BME280;19509;43.862;26.176;2023-05-19T05:18:07;100934.91;;;16.83;75.25
33153;BME280;19509;43.862;26.176;2023-05-19T05:20:33;100937.13;;;16.86;75.30
33153;BME280;19509;43.862;26.176;2023-05-19T05:22:58;100946.22;;;16.92;77.51
33153;BME280;19509;43.862;26.176;2023-05-19T05:25:24;100946.09;;;16.87;76.22
33153;BME280;19509;43.862;26.176;2023-05-19T05:27:50;100944.06;;;17.39;74.91
33153;BME280;19509;43.862;26.176;2023-05-19T05:30:15;100939.75;;;17.60;73.72
33153;BME280;19509;43.862;26.176;2023-05-19T05:32:41;100936.22;;;17.93;72.50
33153;BME280;19509;43.862;26.176;2023-05-19T05:35:07;100940.94;;;18.03;71.85
33153;BME280;19509;43.862;26.176;2023-05-19T05:37:32;100945.75;;;18.35;71.74
33153;BME280;19509;43.862;26.176;2023-05-19T05:39:58;100952.63;;;18.86;72.01
33153;BME280;19509;43.862;26.176;2023-05-19T05:42:23;100953.19;;;18.66;70.52
33153;BME280;19509;43.862;26.176;2023-05-19T05:44:49;100944.53;;;18.48;71.53
33153;BME280;19509;43.862;26.176;2023-05-19T05:47:14;100950.03;;;19.29;68.54
33153;BME280;19509;43.862;26.176;2023-05-19T05:49:40;100948.06;;;19.51;65.32
33153;BME280;19509;43.862;26.176;2023-05-19T05:52:07;100946.78;;;19.00;67.46
33153;BME280;19509;43.862;26.176;2023-05-19T05:54:35;100955.59;;;18.19;70.27
33153;BME280;19509;43.862;26.176;2023-05-19T05:57:01;100957.91;;;17.88;74.60
33153;BME280;19509;43.862;26.176;2023-05-19T05:59:26;100965.63;;;17.96;73.73
33153;BME280;19509;43.862;26.176;2023-05-19T06:01:52;100973.09;;;17.84;73.01
33153;BME280;19509;43.862;26.176;2023-05-19T06:04:17;100971.84;;;17.92;72.49
33153;BME280;19509;43.862;26.176;2023-05-19T06:06:44;100975.06;;;17.89;74.01
33153;BME280;19509;43.862;26.176;2023-05-19T06:09:10;100974.09;;;17.78;75.61
33153;BME280;19509;43.862;26.176;2023-05-19T06:11:36;100978.59;;;17.89;72.93
33153;BME280;19509;43.862;26.176;2023-05-19T06:14:02;100974.81;;;17.90;75.58
33153;BME280;19509;43.862;26.176;2023-05-19T06:16:28;100975.56;;;17.86;75.85
33153;BME280;19509;43.862;26.176;2023-05-19T06:18:53;100975.47;;;17.98;74.87
33153;BME280;19509;43.862;26.176;2023-05-19T06:21:19;100987.25;;;17.86;72.83
33153;BME280;19509;43.862;26.176;2023-05-19T06:23:46;100985.22;;;17.93;77.37
33153;BME280;19509;43.862;26.176;2023-05-19T06:26:11;100989.25;;;18.08;76.04
33153;BME280;19509;43.862;26.176;2023-05-19T06:28:37;100982.66;;;18.04;75.17
33153;BME280;19509;43.862;26.176;2023-05-19T06:31:02;100987.09;;;17.76;74.43
33153;BME280;19509;43.862;26.176;2023-05-19T06:33:28;100993.53;;;18.04;73.72
33153;BME280;19509;43.862;26.176;2023-05-19T06:35:53;100995.19;;;18.05;72.91
33153;BME280;19509;43.862;26.176;2023-05-19T06:38:18;100986.72;;;18.23;74.79
33153;BME280;19509;43.862;26.176;2023-05-19T06:40:44;100995.63;;;18.35;75.83
33153;BME280;19509;43.862;26.176;2023-05-19T06:43:10;100999.47;;;18.39;72.03
33153;BME280;19509;43.862;26.176;2023-05-19T06:45:35;100990.03;;;18.47;72.13
33153;BME280;19509;43.862;26.176;2023-05-19T06:48:00;100990.34;;;18.51;70.83
33153;BME280;19509;43.862;26.176;2023-05-19T06:50:26;100986.13;;;18.38;70.25
33153;BME280;19509;43.862;26.176;2023-05-19T06:52:52;100998.59;;;18.56;72.97
33153;BME280;19509;43.862;26.176;2023-05-19T06:55:18;101001.03;;;18.74;71.04
33153;BME280;19509;43.862;26.176;2023-05-19T06:57:43;101002.41;;;18.99;73.56
33153;BME280;19509;43.862;26.176;2023-05-19T07:00:09;101006.94;;;19.15;69.21
33153;BME280;19509;43.862;26.176;2023-05-19T07:02:38;101002.59;;;19.46;71.15
33153;BME280;19509;43.862;26.176;2023-05-19T07:05:04;101003.06;;;19.38;67.46
33153;BME280;19509;43.862;26.176;2023-05-19T07:07:30;100993.50;;;19.35;69.09
33153;BME280;19509;43.862;26.176;2023-05-19T07:09:55;100994.00;;;19.32;69.69
33153;BME280;19509;43.862;26.176;2023-05-19T07:12:21;100989.72;;;19.69;72.36
33153;BME280;19509;43.862;26.176;2023-05-19T07:14:46;100998.34;;;19.93;72.48
33153;BME280;19509;43.862;26.176;2023-05-19T07:17:12;100983.94;;;19.97;67.18
33153;BME280;19509;43.862;26.176;2023-05-19T07:19:37;100991.34;;;20.07;67.59
33153;BME280;19509;43.862;26.176;2023-05-19T07:22:03;100985.63;;;20.08;66.60
33153;BME280;19509;43.862;26.176;2023-05-19T07:24:28;100985.56;;;19.98;65.19
33153;BME280;19509;43.862;26.176;2023-05-19T07:26:55;100986.22;;;20.16;69.78
33153;BME280;19509;43.862;26.176;2023-05-19T07:29:20;100993.41;;;20.32;68.69
33153;BME280;19509;43.862;26.176;2023-05-19T07:31:46;100986.38;;;20.46;65.87
33153;BME280;19509;43.862;26.176;2023-05-19T07:34:12;100981.31;;;20.70;63.96
33153;BME280;19509;43.862;26.176;2023-05-19T07:36:37;100981.34;;;20.75;65.28
33153;BME280;19509;43.862;26.176;2023-05-19T07:39:03;100981.38;;;20.86;62.56
33153;BME280;19509;43.862;26.176;2023-05-19T07:41:28;100987.13;;;20.94;60.27
33153;BME280;19509;43.862;26.176;2023-05-19T07:43:54;100988.75;;;20.95;60.59
33153;BME280;19509;43.862;26.176;2023-05-19T07:46:20;100985.50;;;21.19;64.41
33153;BME280;19509;43.862;26.176;2023-05-19T07:48:46;100983.06;;;21.33;62.28
33153;BME280;19509;43.862;26.176;2023-05-19T07:51:12;100985.03;;;21.53;61.05
33153;BME280;19509;43.862;26.176;2023-05-19T07:53:38;100979.03;;;21.51;60.36
33153;BME280;19509;43.862;26.176;2023-05-19T07:56:04;100986.97;;;21.57;61.14
33153;BME280;19509;43.862;26.176;2023-05-19T07:58:29;100983.09;;;21.43;60.21
33153;BME280;19509;43.862;26.176;2023-05-19T08:00:58;100986.94;;;21.62;56.58
33153;BME280;19509;43.862;26.176;2023-05-19T08:03:24;100991.59;;;21.52;58.02
33153;BME280;19509;43.862;26.176;2023-05-19T08:05:50;100987.22;;;21.40;58.02
33153;BME280;19509;43.862;26.176;2023-05-19T08:08:17;100995.19;;;21.67;60.20
33153;BME280;19509;43.862;26.176;2023-05-19T08:10:44;100991.03;;;21.70;59.07
33153;BME280;19509;43.862;26.176;2023-05-19T08:13:09;100987.22;;;21.81;58.90
33153;BME280;19509;43.862;26.176;2023-05-19T08:15:35;100980.09;;;21.85;60.26
33153;BME280;19509;43.862;26.176;2023-05-19T08:18:01;100981.19;;;21.84;58.50
33153;BME280;19509;43.862;26.176;2023-05-19T08:20:27;100986.06;;;22.18;61.29
33153;BME280;19509;43.862;26.176;2023-05-19T08:22:52;100982.25;;;22.19;56.78
33153;BME280;19509;43.862;26.176;2023-05-19T08:25:18;100981.41;;;22.24;56.65
33153;BME280;19509;43.862;26.176;2023-05-19T08:27:44;100982.47;;;22.28;59.71
33153;BME280;19509;43.862;26.176;2023-05-19T08:30:10;100990.69;;;22.28;57.05
33153;BME280;19509;43.862;26.176;2023-05-19T08:32:35;100991.19;;;22.45;60.51
33153;BME280;19509;43.862;26.176;2023-05-19T08:35:01;100986.63;;;22.25;54.73
33153;BME280;19509;43.862;26.176;2023-05-19T08:37:26;100981.69;;;22.17;55.67
33153;BME280;19509;43.862;26.176;2023-05-19T08:39:52;100983.25;;;22.49;56.75
33153;BME280;19509;43.862;26.176;2023-05-19T08:42:17;100985.19;;;22.38;54.25
33153;BME280;19509;43.862;26.176;2023-05-19T08:44:43;100988.22;;;22.36;54.52
33153;BME280;19509;43.862;26.176;2023-05-19T08:47:08;100986.00;;;22.49;57.83
33153;BME280;19509;43.862;26.176;2023-05-19T08:49:49;100977.72;;;22.59;52.91
33153;BME280;19509;43.862;26.176;2023-05-19T08:55:43;100980.56;;;22.88;59.35
33153;BME280;19509;43.862;26.176;2023-05-19T08:58:11;100985.19;;;23.03;54.39
33153;BME280;19509;43.862;26.176;2023-05-19T09:00:37;100977.41;;;23.20;56.29
33153;BME280;19509;43.862;26.176;2023-05-19T09:03:03;100976.44;;;22.96;54.32
33153;BME280;19509;43.862;26.176;2023-05-19T09:05:29;100967.81;;;23.12;58.77
33153;BME280;19509;43.862;26.176;2023-05-19T09:07:55;100970.41;;;23.33;54.65
33153;BME280;19509;43.862;26.176;2023-05-19T09:10:21;100974.19;;;23.47;58.53
33153;BME280;19509;43.862;26.176;2023-05-19T09:12:46;100971.91;;;23.54;49.37
33153;BME280;19509;43.862;26.176;2023-05-19T09:15:16;100977.03;;;23.32;55.74
33153;BME280;19509;43.862;26.176;2023-05-19T09:17:45;100973.78;;;23.25;53.31
33153;BME280;19509;43.862;26.176;2023-05-19T09:20:12;100962.06;;;23.48;53.40
33153;BME280;19509;43.862;26.176;2023-05-19T09:22:42;100967.72;;;23.28;51.34
33153;BME280;19509;43.862;26.176;2023-05-19T09:25:45;100970.09;;;23.40;55.07
33153;BME280;19509;43.862;26.176;2023-05-19T09:28:10;100972.72;;;23.55;54.01
33153;BME280;19509;43.862;26.176;2023-05-19T09:30:36;100975.59;;;23.40;51.93
33153;BME280;19509;43.862;26.176;2023-05-19T09:33:02;100973.47;;;23.31;53.02
33153;BME280;19509;43.862;26.176;2023-05-19T09:35:28;100970.41;;;23.67;54.59
33153;BME280;19509;43.862;26.176;2023-05-19T09:37:54;100975.47;;;23.89;52.17
33153;BME280;19509;43.862;26.176;2023-05-19T09:40:19;100968.28;;;23.93;48.75
33153;BME280;19509;43.862;26.176;2023-05-19T09:42:45;100973.22;;;23.91;50.15
33153;BME280;19509;43.862;26.176;2023-05-19T09:45:12;100977.19;;;24.09;52.97
33153;BME280;19509;43.862;26.176;2023-05-19T09:47:40;100966.81;;;24.25;49.45
33153;BME280;19509;43.862;26.176;2023-05-19T09:50:10;100969.06;;;24.23;49.73
33153;BME280;19509;43.862;26.176;2023-05-19T09:52:43;100970.66;;;24.05;53.14
33153;BME280;19509;43.862;26.176;2023-05-19T09:55:10;100954.53;;;24.17;47.94
33153;BME280;19509;43.862;26.176;2023-05-19T09:57:37;100960.47;;;24.29;50.29
33153;BME280;19509;43.862;26.176;2023-05-19T10:02:46;100957.59;;;24.16;50.88
33153;BME280;19509;43.862;26.176;2023-05-19T10:05:16;100951.53;;;24.43;51.26
33153;BME280;19509;43.862;26.176;2023-05-19T10:07:45;100947.00;;;24.52;48.77
33153;BME280;19509;43.862;26.176;2023-05-19T10:10:13;100944.13;;;24.14;51.92
33153;BME280;19509;43.862;26.176;2023-05-19T10:12:40;100938.97;;;24.31;52.77
33153;BME280;19509;43.862;26.176;2023-05-19T10:15:10;100947.91;;;24.18;47.16
33153;BME280;19509;43.862;26.176;2023-05-19T10:17:40;100938.34;;;24.16;47.67
33153;BME280;19509;43.862;26.176;2023-05-19T10:20:11;100937.50;;;24.63;51.78
33153;BME280;19509;43.862;26.176;2023-05-19T10:22:39;100947.31;;;24.69;47.12
33153;BME280;19509;43.862;26.176;2023-05-19T10:25:06;100947.25;;;24.93;47.08
33153;BME280;19509;43.862;26.176;2023-05-19T10:27:34;100941.16;;;24.77;47.09
33153;BME280;19509;43.862;26.176;2023-05-19T10:30:15;100938.03;;;24.84;46.58
33153;BME280;19509;43.862;26.176;2023-05-19T10:32:43;100932.00;;;25.20;50.50
33153;BME280;19509;43.862;26.176;2023-05-19T10:35:27;100934.38;;;25.27;48.52
33153;BME280;19509;43.862;26.176;2023-05-19T10:41:03;100934.03;;;24.76;45.94
33153;BME280;19509;43.862;26.176;2023-05-19T10:43:51;100927.47;;;24.91;43.98
33153;BME280;19509;43.862;26.176;2023-05-19T10:46:22;100923.63;;;25.11;48.49
33153;BME280;19509;43.862;26.176;2023-05-19T10:48:52;100917.69;;;24.99;47.53
33153;BME280;19509;43.862;26.176;2023-05-19T10:51:18;100909.97;;;25.01;45.44
33153;BME280;19509;43.862;26.176;2023-05-19T10:53:44;100916.75;;;24.90;45.25
33153;BME280;19509;43.862;26.176;2023-05-19T10:56:32;100917.94;;;24.22;42.50
33153;BME280;19509;43.862;26.176;2023-05-19T10:59:00;100910.19;;;24.48;47.33
33153;BME280;19509;43.862;26.176;2023-05-19T11:01:33;100907.97;;;24.88;42.06
33153;BME280;19509;43.862;26.176;2023-05-19T11:04:07;100896.81;;;24.98;41.76
33153;BME280;19509;43.862;26.176;2023-05-19T11:06:35;100906.72;;;25.18;45.33
33153;BME280;19509;43.862;26.176;2023-05-19T11:09:14;100907.53;;;25.18;39.49
33153;BME280;19509;43.862;26.176;2023-05-19T11:11:47;100906.81;;;24.32;41.90
33153;BME280;19509;43.862;26.176;2023-05-19T11:14:17;100896.63;;;24.33;43.67
33153;BME280;19509;43.862;26.176;2023-05-19T11:16:46;100895.94;;;24.46;43.88
33153;BME280;19509;43.862;26.176;2023-05-19T11:19:33;100905.22;;;24.69;42.47
33153;BME280;19509;43.862;26.176;2023-05-19T11:22:10;100893.19;;;25.35;41.75
33153;BME280;19509;43.862;26.176;2023-05-19T11:24:44;100891.69;;;25.57;41.85
33153;BME280;19509;43.862;26.176;2023-05-19T11:27:32;100883.53;;;25.19;41.97
33153;BME280;19509;43.862;26.176;2023-05-19T11:29:59;100882.56;;;25.10;39.25
33153;BME280;19509;43.862;26.176;2023-05-19T11:32:30;100882.34;;;25.25;40.33
33153;BME280;19509;43.862;26.176;2023-05-19T11:34:58;100887.47;;;25.32;42.28
33153;BME280;19509;43.862;26.176;2023-05-19T11:37:24;100885.03;;;25.44;41.18
33153;BME280;19509;43.862;26.176;2023-05-19T11:39:50;100866.00;;;25.75;37.39
33153;BME280;19509;43.862;26.176;2023-05-19T11:42:17;100854.28;;;25.83;43.29
33153;BME280;19509;43.862;26.176;2023-05-19T11:44:44;100854.69;;;25.90;43.99
33153;BME280;19509;43.862;26.176;2023-05-19T11:47:15;100859.59;;;25.93;37.25
33153;BME280;19509;43.862;26.176;2023-05-19T11:49:51;100863.56;;;26.01;37.11
33153;BME280;19509;43.862;26.176;2023-05-19T11:52:20;100858.25;;;26.05;39.89
33153;BME280;19509;43.862;26.176;2023-05-19T11:54:47;100841.91;;;26.08;39.21
33153;BME280;19509;43.862;26.176;2023-05-19T11:57:12;100846.28;;;26.23;34.25
33153;BME280;19509;43.862;26.176;2023-05-19T11:59:38;100846.00;;;26.11;35.02
33153;BME280;19509;43.862;26.176;2023-05-19T12:02:24;100838.16;;;25.90;36.02
33153;BME280;19509;43.862;26.176;2023-05-19T12:04:51;100836.00;;;25.87;38.16
33153;BME280;19509;43.862;26.176;2023-05-19T12:07:18;100833.94;;;26.21;38.83
33153;BME280;19509;43.862;26.176;2023-05-19T12:09:47;100840.25;;;26.21;41.19
33153;BME280;19509;43.862;26.176;2023-05-19T12:12:17;100839.56;;;26.02;38.23
33153;BME280;19509;43.862;26.176;2023-05-19T12:14:45;100826.91;;;26.01;36.97
33153;BME280;19509;43.862;26.176;2023-05-19T12:17:13;100820.25;;;26.02;38.26
33153;BME280;19509;43.862;26.176;2023-05-19T12:19:40;100820.13;;;26.21;37.10
33153;BME280;19509;43.862;26.176;2023-05-19T12:22:07;100824.66;;;26.67;40.13
33153;BME280;19509;43.862;26.176;2023-05-19T12:24:34;100810.91;;;25.89;33.31
33153;BME280;19509;43.862;26.176;2023-05-19T12:27:25;100813.59;;;25.47;36.74
33153;BME280;19509;43.862;26.176;2023-05-19T12:29:55;100812.16;;;24.90;39.46
33153;BME280;19509;43.862;26.176;2023-05-19T12:32:24;100821.19;;;24.58;40.32
33153;BME280;19509;43.862;26.176;2023-05-19T12:34:50;100812.28;;;24.47;39.94
33153;BME280;19509;43.862;26.176;2023-05-19T12:37:16;100814.69;;;24.29;40.54
33153;BME280;19509;43.862;26.176;2023-05-19T12:39:42;100813.88;;;24.29;41.10
33153;BME280;19509;43.862;26.176;2023-05-19T12:42:10;100819.16;;;24.25;43.65
33153;BME280;19509;43.862;26.176;2023-05-19T12:44:37;100815.41;;;24.35;41.06
33153;BME280;19509;43.862;26.176;2023-05-19T12:47:04;100810.22;;;24.34;42.94
33153;BME280;19509;43.862;26.176;2023-05-19T12:49:32;100821.97;;;24.20;41.26
33153;BME280;19509;43.862;26.176;2023-05-19T12:52:00;100830.47;;;24.00;39.83
33153;BME280;19509;43.862;26.176;2023-05-19T12:54:31;100826.25;;;23.59;42.74
33153;BME280;19509;43.862;26.176;2023-05-19T12:56:57;100826.78;;;23.37;43.76
33153;BME280;19509;43.862;26.176;2023-05-19T12:59:24;100828.50;;;23.28;43.90
33153;BME280;19509;43.862;26.176;2023-05-19T13:01:59;100825.22;;;23.55;43.59
33153;BME280;19509;43.862;26.176;2023-05-19T13:04:25;100831.63;;;23.75;43.11